Time;durP1;ratioP1;P1;durP2;ratioP2;P2;SDS_P1;SDS_P2;PMS_P1;PMS_P2;Temp;Humidity;BMP_temperature;BMP_pressure;BME280_temperature;BME280_humidity;BME280_pressure;Samples;Min_cycle;Max_cycle;Signal;HPM_P1;HPM_P2
2022/05/25 00:01:53;;;;;;;5.67;5.30;;;13.00;99.90;;;;;;4940185;28;20475;-67
2022/05/25 00:04:21;;;;;;;5.17;4.77;;;13.10;99.90;;;;;;4939872;29;20536;-69
2022/05/25 00:06:49;;;;;;;5.13;4.33;;;13.00;99.90;;;;;;4939776;29;20653;-69
2022/05/25 00:09:17;;;;;;;4.60;4.30;;;13.00;99.90;;;;;;4940726;28;20717;-69
2022/05/25 00:11:46;;;;;;;4.80;4.43;;;13.00;99.90;;;;;;4940277;29;20471;-69
2022/05/25 00:14:14;;;;;;;4.97;4.63;;;12.90;99.90;;;;;;4939993;29;20481;-69
2022/05/25 00:16:42;;;;;;;5.97;5.47;;;13.00;99.90;;;;;;4940417;29;20453;-69
2022/05/25 00:21:56;;;;;;;5.10;4.80;;;13.10;99.90;;;;;;4939939;29;20539;-68
2022/05/25 00:24:24;;;;;;;4.90;4.60;;;13.20;99.90;;;;;;4939643;29;20483;-69
2022/05/25 00:26:53;;;;;;;4.70;4.37;;;13.30;99.90;;;;;;4939460;28;20724;-67
2022/05/25 00:29:20;;;;;;;4.97;4.63;;;13.30;99.90;;;;;;4940942;28;20445;-67
2022/05/25 00:31:48;;;;;;;5.63;5.23;;;13.30;99.90;;;;;;4943435;28;20453;-68
2022/05/25 00:34:16;;;;;;;7.03;4.70;;;13.30;99.90;;;;;;4943400;29;20633;-67
2022/05/25 00:36:44;;;;;;;6.97;5.83;;;13.30;99.90;;;;;;4942858;29;20444;-68
2022/05/25 00:39:12;;;;;;;5.80;5.30;;;13.30;99.90;;;;;;4943633;29;20539;-67
2022/05/25 00:41:40;;;;;;;5.37;4.87;;;13.20;99.90;;;;;;4943003;29;20879;-68
2022/05/25 00:44:09;;;;;;;5.87;5.43;;;13.20;99.90;;;;;;4943422;29;20531;-67
2022/05/25 00:46:39;;;;;;;5.50;5.20;;;13.20;99.90;;;;;;4943312;29;20449;-67
2022/05/25 00:49:13;;;;;;;5.23;4.83;;;13.20;99.90;;;;;;4943193;29;20440;-68
2022/05/25 00:51:47;;;;;;;6.57;5.90;;;13.20;99.90;;;;;;4943329;29;21043;-67
2022/05/25 00:54:20;;;;;;;6.30;5.90;;;13.20;99.90;;;;;;4943564;29;20574;-68
2022/05/25 00:56:50;;;;;;;8.17;5.87;;;13.20;99.90;;;;;;4943468;29;20444;-68
2022/05/25 00:59:22;;;;;;;6.03;5.63;;;13.20;99.90;;;;;;4943543;29;20456;-67
2022/05/25 01:01:50;;;;;;;5.20;4.90;;;13.20;99.90;;;;;;4943239;28;20475;-68
2022/05/25 01:04:19;;;;;;;4.87;4.47;;;13.20;99.90;;;;;;4942811;28;20800;-68
2022/05/25 01:07:09;;;;;;;5.10;4.70;;;13.20;99.90;;;;;;4942576;29;21072;-67
2022/05/25 01:09:52;;;;;;;7.00;6.30;;;13.10;99.90;;;;;;4942894;29;20432;-68
2022/05/25 01:12:45;;;;;;;5.77;5.27;;;13.00;99.90;;;;;;4942492;29;20456;-67
2022/05/25 01:15:19;;;;;;;5.63;5.10;;;13.00;99.90;;;;;;4942796;29;20520;-68
2022/05/25 01:18:00;;;;;;;6.67;6.17;;;12.90;99.90;;;;;;4943368;29;20465;-67
2022/05/25 01:20:34;;;;;;;6.80;6.23;;;12.90;99.90;;;;;;4942156;29;20617;-68
2022/05/25 01:23:29;;;;;;;7.57;6.03;;;12.90;99.90;;;;;;4942637;29;20528;-67
2022/05/25 01:26:17;;;;;;;6.47;5.97;;;12.80;99.90;;;;;;4942594;29;20560;-67
2022/05/25 01:29:09;;;;;;;8.73;5.93;;;12.70;99.90;;;;;;4930170;29;20453;-67
2022/05/25 01:31:46;;;;;;;6.23;5.70;;;12.60;99.90;;;;;;4943299;29;20460;-67
2022/05/25 01:34:23;;;;;;;5.67;5.27;;;12.60;99.90;;;;;;4942677;29;20798;-68
2022/05/25 01:36:59;;;;;;;6.77;5.77;;;12.50;99.90;;;;;;4942198;29;20597;-67
2022/05/25 01:39:32;;;;;;;6.70;6.00;;;12.50;99.90;;;;;;4942732;28;20966;-67
2022/05/25 01:42:08;;;;;;;6.50;6.00;;;12.50;99.90;;;;;;4941969;29;21072;-68
2022/05/25 01:44:40;;;;;;;6.13;5.30;;;12.50;99.90;;;;;;4942613;29;20527;-69
2022/05/25 01:47:10;;;;;;;6.63;6.03;;;12.60;99.90;;;;;;4942398;29;20451;-67
2022/05/25 01:49:44;;;;;;;6.40;5.90;;;12.70;99.90;;;;;;4942707;29;20720;-69
2022/05/25 01:52:17;;;;;;;7.70;6.63;;;12.70;99.90;;;;;;4942444;29;20857;-68
2022/05/25 01:54:51;;;;;;;7.70;6.50;;;12.80;99.90;;;;;;4942498;29;20676;-67
2022/05/25 01:57:23;;;;;;;6.53;6.03;;;12.70;99.90;;;;;;4942868;29;20966;-67
2022/05/25 01:59:51;;;;;;;8.10;7.40;;;12.60;99.90;;;;;;4941949;29;20460;-68
2022/05/25 02:05:11;;;;;;;6.23;5.83;;;12.50;99.90;;;;;;4942632;29;20437;-67
2022/05/25 02:07:52;;;;;;;6.13;5.63;;;12.60;99.90;;;;;;4941921;29;20690;-68
2022/05/25 02:10:26;;;;;;;9.67;7.00;;;12.60;99.90;;;;;;4941790;29;20468;-68
2022/05/25 02:13:07;;;;;;;7.33;5.20;;;12.60;99.90;;;;;;4941792;29;20452;-67
2022/05/25 02:15:43;;;;;;;6.80;6.23;;;12.60;99.90;;;;;;4940839;29;20884;-67
2022/05/25 02:18:26;;;;;;;7.70;6.90;;;12.60;99.90;;;;;;4941427;29;20784;-67
2022/05/25 02:21:00;;;;;;;7.13;6.63;;;12.70;99.90;;;;;;4940926;29;20474;-67
2022/05/25 02:23:33;;;;;;;6.33;5.73;;;12.70;99.90;;;;;;4941317;29;21182;-67
2022/05/25 02:26:06;;;;;;;7.60;6.93;;;12.70;99.90;;;;;;4941567;29;20441;-67
2022/05/25 02:28:39;;;;;;;7.53;6.77;;;12.60;99.90;;;;;;4941225;29;21051;-67
2022/05/25 02:31:13;;;;;;;7.70;7.00;;;12.60;99.90;;;;;;4940870;29;20985;-67
2022/05/25 02:33:45;;;;;;;7.73;6.73;;;12.60;99.90;;;;;;4941023;29;20741;-67
2022/05/25 02:36:14;;;;;;;6.87;6.37;;;12.60;99.90;;;;;;4940863;29;20762;-67
2022/05/25 02:38:43;;;;;;;8.23;7.33;;;12.70;99.90;;;;;;4941169;29;20459;-68
2022/05/25 02:41:14;;;;;;;7.27;6.57;;;12.70;99.90;;;;;;4941005;28;20487;-68
2022/05/25 02:43:42;;;;;;;6.33;5.93;;;12.80;99.90;;;;;;4941339;29;20616;-68
2022/05/25 02:46:14;;;;;;;7.47;6.87;;;12.80;99.90;;;;;;4940734;28;20445;-68
2022/05/25 02:48:43;;;;;;;7.50;6.73;;;12.90;99.90;;;;;;4941198;29;20536;-69
2022/05/25 02:51:11;;;;;;;7.63;7.00;;;12.90;99.90;;;;;;4940388;28;20540;-68
2022/05/25 02:53:43;;;;;;;8.80;8.10;;;12.90;99.90;;;;;;4940893;29;21046;-68
2022/05/25 02:56:11;;;;;;;6.47;6.03;;;12.90;99.90;;;;;;4940479;28;20481;-68
2022/05/25 02:58:39;;;;;;;6.07;5.57;;;12.80;99.90;;;;;;4940333;28;20463;-68
2022/05/25 03:01:07;;;;;;;7.60;6.97;;;12.70;99.90;;;;;;4940503;29;20465;-68
2022/05/25 03:03:36;;;;;;;7.80;7.00;;;12.60;99.90;;;;;;4940697;29;20753;-68
2022/05/25 03:06:07;;;;;;;8.03;7.33;;;12.50;99.90;;;;;;4940314;29;20448;-68
2022/05/25 03:08:35;;;;;;;8.97;8.07;;;12.40;99.90;;;;;;4941048;29;20533;-68
2022/05/25 03:11:03;;;;;;;8.43;7.63;;;12.40;99.90;;;;;;4940946;29;20468;-67
2022/05/25 03:13:35;;;;;;;6.50;6.03;;;12.40;99.90;;;;;;4940409;29;21161;-69
2022/05/25 03:16:05;;;;;;;7.53;6.93;;;12.30;99.90;;;;;;4939857;29;20832;-68
2022/05/25 03:18:32;;;;;;;8.70;7.87;;;12.20;99.90;;;;;;4940797;28;20767;-68
2022/05/25 03:21:00;;;;;;;7.33;6.70;;;12.10;99.90;;;;;;4940496;29;20504;-68
2022/05/25 03:23:29;;;;;;;6.43;5.93;;;12.00;99.90;;;;;;4940555;28;20444;-68
2022/05/25 03:25:57;;;;;;;8.43;7.63;;;11.90;99.90;;;;;;4940382;29;20520;-68
2022/05/25 03:28:25;;;;;;;7.70;7.10;;;11.90;99.90;;;;;;4940184;29;20948;-68
2022/05/25 03:30:54;;;;;;;7.50;6.77;;;11.90;99.90;;;;;;4940565;28;20472;-68
2022/05/25 03:33:22;;;;;;;8.20;7.40;;;11.80;99.90;;;;;;4940940;28;20747;-68
2022/05/25 03:35:50;;;;;;;8.37;7.67;;;11.80;99.90;;;;;;4940756;28;20571;-68
2022/05/25 03:38:18;;;;;;;7.80;7.10;;;11.80;99.90;;;;;;4940984;29;20948;-68
2022/05/25 03:40:47;;;;;;;9.37;8.40;;;11.80;99.90;;;;;;4940583;28;20471;-70
2022/05/25 03:43:18;;;;;;;9.97;8.57;;;11.80;99.90;;;;;;4940863;28;20812;-68
2022/05/25 03:45:46;;;;;;;9.10;8.20;;;11.80;99.90;;;;;;4939931;29;20551;-68
2022/05/25 03:48:15;;;;;;;8.70;7.90;;;11.80;99.90;;;;;;4940008;28;20543;-68
2022/05/25 03:50:43;;;;;;;9.23;8.20;;;11.70;99.90;;;;;;4939742;29;20841;-68
2022/05/25 03:53:15;;;;;;;8.97;8.20;;;11.60;99.90;;;;;;4939886;29;20677;-68
2022/05/25 03:55:43;;;;;;;9.53;8.63;;;11.60;99.90;;;;;;4939830;29;20480;-68
2022/05/25 03:58:12;;;;;;;9.90;8.20;;;11.60;99.90;;;;;;4940186;29;20449;-67
2022/05/25 04:00:40;;;;;;;9.97;9.10;;;11.60;99.90;;;;;;4939903;29;20656;-68
2022/05/25 04:03:11;;;;;;;10.13;9.13;;;11.60;99.90;;;;;;4939678;28;20447;-68
2022/05/25 04:05:39;;;;;;;8.77;8.00;;;11.50;99.90;;;;;;4943435;29;20540;-68
2022/05/25 04:08:09;;;;;;;8.60;7.77;;;11.50;99.90;;;;;;4943781;28;20830;-68
2022/05/25 04:10:38;;;;;;;9.87;8.70;;;11.50;99.90;;;;;;4944141;28;20527;-68
2022/05/25 04:13:06;;;;;;;9.23;8.43;;;11.40;99.90;;;;;;4944251;28;20533;-67
2022/05/25 04:15:35;;;;;;;10.37;9.37;;;11.40;99.90;;;;;;4943313;29;20456;-68
2022/05/25 04:18:03;;;;;;;10.43;7.60;;;11.40;99.90;;;;;;4944420;29;20455;-68
2022/05/25 04:20:32;;;;;;;8.57;7.87;;;11.40;99.90;;;;;;4943976;28;20589;-68
2022/05/25 04:23:02;;;;;;;10.10;8.70;;;11.50;99.90;;;;;;4943564;29;20539;-67
2022/05/25 04:25:31;;;;;;;11.23;10.23;;;11.50;99.90;;;;;;4943446;28;20754;-67
2022/05/25 04:27:59;;;;;;;12.83;10.90;;;11.60;99.90;;;;;;4943443;29;20700;-67
2022/05/25 04:30:29;;;;;;;10.30;9.40;;;11.60;99.90;;;;;;4943341;29;20441;-67
2022/05/25 04:32:59;;;;;;;11.50;10.50;;;11.60;99.90;;;;;;4943870;29;20603;-67
2022/05/25 04:35:27;;;;;;;10.60;9.70;;;11.50;99.90;;;;;;4944176;28;20544;-67
2022/05/25 04:37:56;;;;;;;9.87;8.97;;;11.50;99.90;;;;;;4944183;29;20718;-67
2022/05/25 04:40:28;;;;;;;10.47;9.40;;;11.60;99.90;;;;;;4942659;29;20524;-67
2022/05/25 04:42:57;;;;;;;9.37;8.23;;;11.60;99.90;;;;;;4943487;29;20466;-67
2022/05/25 04:45:26;;;;;;;11.20;10.13;;;11.70;99.90;;;;;;4943141;28;20948;-67
2022/05/25 04:47:55;;;;;;;12.07;10.93;;;11.70;99.90;;;;;;4943175;28;20478;-67
2022/05/25 04:50:26;;;;;;;10.57;9.57;;;11.80;99.90;;;;;;4942739;28;20528;-67
2022/05/25 04:52:56;;;;;;;9.57;8.73;;;11.80;99.90;;;;;;4943718;29;20522;-67
2022/05/25 04:58:19;;;;;;;10.63;9.57;;;11.90;99.90;;;;;;4942816;28;20432;-67
2022/05/25 05:00:46;;;;;;;10.13;8.77;;;12.00;99.90;;;;;;4943133;29;20891;-67
2022/05/25 05:03:15;;;;;;;10.17;9.17;;;12.10;99.90;;;;;;4942812;28;20448;-68
2022/05/25 05:05:45;;;;;;;8.90;8.13;;;12.20;99.90;;;;;;4942833;28;20559;-67
2022/05/25 05:08:13;;;;;;;11.27;10.20;;;12.20;99.90;;;;;;4942794;29;20680;-67
2022/05/25 05:10:42;;;;;;;10.07;8.80;;;12.30;99.90;;;;;;4943330;29;20523;-68
2022/05/25 05:13:11;;;;;;;9.63;8.73;;;12.30;99.90;;;;;;4943164;29;20447;-67
2022/05/25 05:15:41;;;;;;;7.50;6.80;;;12.30;99.90;;;;;;4942305;28;21111;-68
2022/05/25 05:18:09;;;;;;;10.20;9.27;;;12.40;99.90;;;;;;4942698;29;20753;-67
2022/05/25 05:20:37;;;;;;;10.00;9.00;;;12.50;99.90;;;;;;4942903;28;20480;-68
2022/05/25 05:23:12;;;;;;;9.53;8.63;;;12.60;99.90;;;;;;4943477;29;20535;-68
2022/05/25 05:25:40;;;;;;;8.17;7.57;;;12.80;99.90;;;;;;4942492;29;20451;-68
2022/05/25 05:28:11;;;;;;;8.70;6.87;;;12.80;99.90;;;;;;4942376;29;20447;-68
2022/05/25 05:30:47;;;;;;;9.40;8.50;;;12.90;99.90;;;;;;4942061;29;20543;-68
2022/05/25 05:33:20;;;;;;;7.23;6.63;;;12.90;99.90;;;;;;4942187;29;20999;-68
2022/05/25 05:35:55;;;;;;;8.60;7.90;;;12.80;99.90;;;;;;4941979;28;20456;-67
2022/05/25 05:38:25;;;;;;;7.93;7.20;;;12.90;99.90;;;;;;4941887;29;20801;-68
2022/05/25 05:40:53;;;;;;;9.60;7.97;;;12.90;99.90;;;;;;4941786;29;21233;-68
2022/05/25 05:43:22;;;;;;;6.97;6.33;;;12.90;99.90;;;;;;4941956;29;20516;-68
2022/05/25 05:45:52;;;;;;;9.07;8.20;;;13.00;99.90;;;;;;4941720;28;20753;-68
2022/05/25 05:48:22;;;;;;;14.17;7.27;;;13.00;99.90;;;;;;4942272;29;20592;-67
2022/05/25 05:50:54;;;;;;;7.70;7.10;;;13.00;99.90;;;;;;4942370;29;20460;-68
2022/05/25 05:53:26;;;;;;;7.03;6.50;;;13.00;99.90;;;;;;4941988;29;20640;-68
2022/05/25 05:55:54;;;;;;;6.20;5.70;;;13.10;99.90;;;;;;4941426;29;20662;-68
2022/05/25 05:58:22;;;;;;;6.43;5.93;;;13.10;99.90;;;;;;4941697;28;20485;-68
2022/05/25 06:00:50;;;;;;;6.73;5.90;;;13.20;99.90;;;;;;4941448;29;20482;-69
2022/05/25 06:03:18;;;;;;;6.10;5.60;;;13.20;99.90;;;;;;4941644;28;20536;-67
2022/05/25 06:05:46;;;;;;;10.80;5.60;;;13.30;99.90;;;;;;4941116;29;21189;-67
2022/05/25 06:08:17;;;;;;;5.73;5.27;;;13.40;99.90;;;;;;4941508;28;20455;-67
2022/05/25 06:10:47;;;;;;;6.97;6.40;;;13.40;99.90;;;;;;4941463;29;20560;-67
2022/05/25 06:13:15;;;;;;;5.87;5.10;;;13.40;99.90;;;;;;4941736;28;20451;-67
2022/05/25 06:21:20;;;;;;;5.67;5.17;;;13.60;99.90;;;;;;4941218;29;20556;-69
2022/05/25 06:23:48;;;;;;;6.43;5.27;;;13.70;99.90;;;;;;4941227;28;20448;-69
2022/05/25 06:26:18;;;;;;;6.07;5.30;;;13.80;99.90;;;;;;4940564;28;20527;-69
2022/05/25 06:28:46;;;;;;;4.93;4.53;;;13.90;99.90;;;;;;4941009;28;20468;-69
2022/05/25 06:31:15;;;;;;;5.50;4.50;;;14.00;99.90;;;;;;4941042;29;20472;-70
2022/05/25 06:33:43;;;;;;;4.33;3.93;;;14.00;99.90;;;;;;4941347;28;20460;-69
2022/05/25 06:36:16;;;;;;;5.03;4.60;;;14.10;99.90;;;;;;4941557;29;20472;-69
2022/05/25 06:38:44;;;;;;;4.90;4.60;;;14.20;99.90;;;;;;4942383;29;20507;-69
2022/05/25 06:41:12;;;;;;;4.40;4.20;;;14.20;99.90;;;;;;4941892;29;20714;-69
2022/05/25 06:43:42;;;;;;;5.10;4.63;;;14.30;99.90;;;;;;4941021;28;20797;-69
2022/05/25 06:46:12;;;;;;;6.93;5.10;;;14.40;99.90;;;;;;4940532;29;20959;-68
2022/05/25 06:48:47;;;;;;;5.13;4.73;;;14.40;99.90;;;;;;4940612;29;20503;-68
2022/05/25 06:51:18;;;;;;;4.40;4.10;;;14.50;99.90;;;;;;4941215;29;20484;-67
2022/05/25 06:53:47;;;;;;;4.37;4.07;;;14.60;99.90;;;;;;4941297;29;20445;-67
2022/05/25 06:56:16;;;;;;;5.47;5.07;;;14.70;99.90;;;;;;4940503;28;20628;-67
2022/05/25 06:58:45;;;;;;;5.00;4.47;;;14.80;99.90;;;;;;4940469;28;20485;-67
2022/05/25 07:01:13;;;;;;;6.47;5.83;;;14.80;99.90;;;;;;4940503;28;20480;-67
2022/05/25 07:03:41;;;;;;;5.57;5.17;;;14.80;99.90;;;;;;4940830;29;20445;-67
2022/05/25 07:06:11;;;;;;;5.23;4.83;;;14.90;99.90;;;;;;4940463;28;20444;-67
2022/05/25 07:08:38;;;;;;;4.97;4.57;;;15.00;99.90;;;;;;4940348;29;20476;-68
2022/05/25 07:11:06;;;;;;;5.30;4.70;;;15.10;99.90;;;;;;4940284;29;20471;-68
2022/05/25 07:13:35;;;;;;;5.37;4.90;;;15.20;99.90;;;;;;4940312;29;20480;-68
2022/05/25 07:16:06;;;;;;;5.23;4.93;;;15.30;99.90;;;;;;4940577;29;20811;-68
2022/05/25 07:18:35;;;;;;;4.33;3.93;;;15.30;99.90;;;;;;4940952;29;20655;-67
2022/05/25 07:21:06;;;;;;;6.07;4.27;;;15.40;99.90;;;;;;4939702;29;20461;-68
2022/05/25 07:23:34;;;;;;;4.10;3.80;;;15.40;99.90;;;;;;4940077;29;20880;-68
2022/05/25 07:26:02;;;;;;;3.40;3.10;;;15.50;99.90;;;;;;4940091;29;20441;-68
2022/05/25 07:28:30;;;;;;;4.67;4.27;;;15.50;99.90;;;;;;4939859;28;20447;-68
2022/05/25 07:31:03;;;;;;;3.57;3.27;;;15.50;99.90;;;;;;4940027;29;20575;-67
2022/05/25 07:33:34;;;;;;;3.47;3.17;;;15.50;99.90;;;;;;4940058;29;20539;-68
2022/05/25 07:36:02;;;;;;;3.27;3.07;;;15.60;99.90;;;;;;4939871;29;20527;-68
2022/05/25 07:38:31;;;;;;;4.40;4.10;;;15.70;99.90;;;;;;4939830;28;20511;-68
2022/05/25 07:41:00;;;;;;;3.50;3.20;;;15.70;99.90;;;;;;4940242;29;20456;-68
2022/05/25 07:43:32;;;;;;;3.13;2.57;;;15.90;99.90;;;;;;4940490;29;20544;-68
2022/05/25 07:46:00;;;;;;;2.17;2.07;;;15.90;99.90;;;;;;4939436;29;20968;-68
2022/05/25 07:48:30;;;;;;;3.50;3.20;;;16.00;99.90;;;;;;4939841;28;20448;-68
2022/05/25 07:51:00;;;;;;;3.63;3.40;;;16.10;99.90;;;;;;4939812;29;20728;-68
2022/05/25 07:56:13;;;;;;;5.90;3.30;;;16.30;99.90;;;;;;4940203;29;20755;-68
2022/05/25 07:58:41;;;;;;;4.20;3.80;;;16.40;99.90;;;;;;4940199;28;20480;-68
2022/05/25 08:01:12;;;;;;;3.40;3.10;;;16.60;99.90;;;;;;4939259;29;20560;-68
2022/05/25 08:06:28;;;;;;;3.67;2.80;;;16.70;99.90;;;;;;4939548;29;20520;-68
2022/05/25 08:08:57;;;;;;;2.73;2.60;;;16.90;99.90;;;;;;4939533;29;20441;-67
2022/05/25 08:11:25;;;;;;;3.77;3.47;;;16.90;99.90;;;;;;4939178;29;20469;-67
2022/05/25 08:13:56;;;;;;;2.80;2.50;;;16.90;99.90;;;;;;4939947;29;20541;-68
2022/05/25 08:16:24;;;;;;;2.87;2.77;;;17.10;99.90;;;;;;4939798;29;20480;-67
2022/05/25 08:18:52;;;;;;;3.10;2.80;;;17.10;99.90;;;;;;4939376;28;20483;-67
2022/05/25 08:21:20;;;;;;;3.43;3.13;;;17.10;99.90;;;;;;4939087;29;20473;-67
2022/05/25 08:24:09;;;;;;;3.33;3.13;;;17.00;99.90;;;;;;4939722;29;20448;-67
2022/05/25 08:26:37;;;;;;;6.13;3.10;;;17.00;99.90;;;;;;4939294;28;20597;-67
2022/05/25 08:29:04;;;;;;;3.30;3.10;;;17.00;99.90;;;;;;4939752;28;20448;-68
2022/05/25 08:31:32;;;;;;;3.50;3.20;;;17.00;99.90;;;;;;4940315;28;20466;-68
2022/05/25 08:34:00;;;;;;;5.67;4.10;;;17.00;99.90;;;;;;4939993;29;20454;-68
2022/05/25 08:36:28;;;;;;;3.57;3.37;;;17.10;99.90;;;;;;4939199;29;20944;-68
2022/05/25 08:38:56;;;;;;;3.87;3.67;;;17.20;99.90;;;;;;4939340;29;20508;-67
2022/05/25 08:41:29;;;;;;;2.80;2.60;;;17.20;99.90;;;;;;4939331;29;20725;-67
2022/05/25 08:43:59;;;;;;;3.60;2.90;;;17.20;99.90;;;;;;4939582;29;20434;-67
2022/05/25 08:46:29;;;;;;;3.07;2.90;;;17.30;99.90;;;;;;4939246;28;20796;-67
2022/05/25 08:49:01;;;;;;;3.10;3.00;;;17.30;99.90;;;;;;4939296;28;20523;-67
2022/05/25 08:51:42;;;;;;;2.60;2.50;;;17.40;99.90;;;;;;4942548;29;20720;-67
2022/05/25 08:54:10;;;;;;;3.20;3.00;;;17.50;99.90;;;;;;4943448;29;20446;-69
2022/05/25 08:56:44;;;;;;;3.50;3.30;;;17.60;99.90;;;;;;4943167;29;20491;-69
2022/05/25 08:59:18;;;;;;;2.73;2.53;;;17.70;99.90;;;;;;4943002;29;20577;-67
2022/05/25 09:01:51;;;;;;;2.87;2.57;;;17.90;99.90;;;;;;4943379;29;20573;-68
2022/05/25 09:04:27;;;;;;;5.00;2.27;;;18.10;99.90;;;;;;4943057;29;20517;-68
2022/05/25 09:07:01;;;;;;;1.80;1.70;;;18.20;99.90;;;;;;4942939;29;20625;-68
2022/05/25 09:09:37;;;;;;;2.10;1.77;;;18.40;99.90;;;;;;4943363;29;20979;-67
2022/05/25 09:12:10;;;;;;;2.37;2.23;;;18.50;99.90;;;;;;4942984;29;20805;-69
2022/05/25 09:14:43;;;;;;;2.13;2.03;;;18.60;99.90;;;;;;4942453;29;20645;-68
2022/05/25 09:17:21;;;;;;;1.90;1.80;;;18.70;99.90;;;;;;4942624;29;21140;-68
2022/05/25 09:19:50;;;;;;;2.10;2.00;;;18.70;99.90;;;;;;4942238;29;20505;-68
2022/05/25 09:22:22;;;;;;;3.20;2.23;;;18.90;99.90;;;;;;4943044;29;20475;-68
2022/05/25 09:24:53;;;;;;;1.87;1.77;;;18.90;99.90;;;;;;4943055;28;20459;-68
2022/05/25 09:27:25;;;;;;;2.00;1.90;;;18.90;99.90;;;;;;4943534;29;20510;-68
2022/05/25 09:29:56;;;;;;;1.83;1.73;;;18.90;99.90;;;;;;4943114;29;20494;-68
2022/05/25 09:32:43;;;;;;;1.97;1.87;;;18.90;99.90;;;;;;4942762;29;21023;-69
2022/05/25 09:35:16;;;;;;;2.50;2.30;;;18.90;99.90;;;;;;4942784;29;20455;-69
2022/05/25 09:37:50;;;;;;;1.93;1.83;;;18.90;99.90;;;;;;4942625;29;20655;-69
2022/05/25 09:40:22;;;;;;;2.50;1.90;;;18.70;99.90;;;;;;4942265;29;20574;-69
2022/05/25 09:42:55;;;;;;;2.13;2.03;;;18.60;99.90;;;;;;4941926;29;21007;-68
2022/05/25 09:45:25;;;;;;;2.27;2.10;;;18.50;99.90;;;;;;4942186;29;20493;-68
2022/05/25 09:47:53;;;;;;;2.30;2.20;;;18.50;99.90;;;;;;4942357;29;21119;-69
2022/05/25 09:50:33;;;;;;;3.77;2.80;;;18.60;99.90;;;;;;4942288;29;20576;-68
2022/05/25 09:53:04;;;;;;;2.77;2.57;;;18.60;99.90;;;;;;4942663;29;20509;-68
2022/05/25 09:55:35;;;;;;;3.40;2.30;;;18.50;99.90;;;;;;4942321;29;21028;-69
2022/05/25 09:58:07;;;;;;;1.63;1.63;;;18.50;99.90;;;;;;4941865;29;21028;-68
2022/05/25 10:00:48;;;;;;;2.47;1.70;;;18.50;99.90;;;;;;4941704;28;20514;-68
2022/05/25 10:03:28;;;;;;;2.23;2.03;;;18.80;99.90;;;;;;4941179;29;20449;-68
2022/05/25 10:05:59;;;;;;;2.10;2.00;;;19.10;99.90;;;;;;4941263;29;21004;-68
2022/05/25 10:08:36;;;;;;;2.93;2.63;;;19.40;99.90;;;;;;4941558;29;20448;-67
2022/05/25 10:11:27;;;;;;;3.93;2.20;;;19.60;99.90;;;;;;4941247;29;20465;-69
2022/05/25 10:14:13;;;;;;;2.67;2.50;;;19.80;99.90;;;;;;4940882;29;20841;-67
2022/05/25 10:16:42;;;;;;;1.90;1.90;;;20.00;99.90;;;;;;4940913;29;20526;-67
2022/05/25 10:19:12;;;;;;;2.90;2.60;;;20.20;99.90;;;;;;4940994;29;20782;-67
2022/05/25 10:21:48;;;;;;;1.97;1.87;;;20.30;99.90;;;;;;4941088;29;20527;-67
2022/05/25 10:24:22;;;;;;;2.27;2.17;;;20.20;99.90;;;;;;4941583;28;20448;-67
2022/05/25 10:26:52;;;;;;;2.60;2.37;;;20.20;99.90;;;;;;4941313;29;20441;-67
2022/05/25 10:38:11;;;;;;;2.20;2.10;;;20.00;99.90;;;;;;4942009;28;21025;-67
2022/05/25 10:40:44;;;;;;;1.77;1.63;;;19.80;99.90;;;;;;4941716;29;20508;-67
2022/05/25 10:43:26;;;;;;;1.40;1.40;;;19.80;99.90;;;;;;4941934;29;20612;-67
2022/05/25 10:45:57;;;;;;;1.47;1.37;;;19.90;99.90;;;;;;4942135;29;20503;-68
2022/05/25 10:48:41;;;;;;;3.43;1.27;;;20.00;99.90;;;;;;4940840;29;20441;-68
2022/05/25 10:51:13;;;;;;;1.80;1.33;;;20.10;99.90;;;;;;4941019;29;20453;-67
2022/05/25 10:54:44;;;;;;;1.60;1.50;;;20.20;99.90;;;;;;4941241;29;20468;-66
2022/05/25 10:56:42;;;;;;;2.60;1.63;;;20.20;99.90;;;;;;4940298;29;20445;-67
2022/05/25 10:59:20;;;;;;;1.20;1.20;;;20.30;99.90;;;;;;4940428;28;20731;-68
2022/05/25 11:02:05;;;;;;;1.80;1.47;;;20.40;99.90;;;;;;4940910;29;20678;-67
2022/05/25 11:04:58;;;;;;;1.43;1.33;;;20.30;99.90;;;;;;4940715;29;20441;-67
2022/05/25 11:07:32;;;;;;;1.80;1.70;;;20.30;99.90;;;;;;4940891;29;20694;-67
2022/05/25 11:10:22;;;;;;;2.10;1.73;;;20.20;99.90;;;;;;4940077;29;20433;-67
2022/05/25 11:13:09;;;;;;;1.50;1.40;;;20.20;99.90;;;;;;4939702;28;20719;-68
2022/05/25 11:15:46;;;;;;;1.50;1.40;;;20.20;99.90;;;;;;4939273;29;20474;-68
2022/05/25 11:18:27;;;;;;;1.70;1.57;;;20.20;99.90;;;;;;4940136;29;20803;-69
2022/05/25 11:21:07;;;;;;;2.20;1.50;;;20.20;99.90;;;;;;4940089;29;20494;-69
2022/05/25 11:23:57;;;;;;;1.47;1.47;;;20.30;99.90;;;;;;4940917;29;20455;-67
2022/05/25 11:26:49;;;;;;;2.30;1.60;;;20.30;99.90;;;;;;4940408;28;20440;-67
2022/05/25 11:29:29;;;;;;;1.73;1.63;;;20.50;99.90;;;;;;4940598;29;20971;-68
2022/05/25 11:32:04;;;;;;;1.90;1.27;;;20.60;99.90;;;;;;4939494;29;20456;-68
2022/05/25 11:34:48;;;;;;;1.50;1.33;;;20.70;99.90;;;;;;4940186;29;20744;-68
2022/05/25 11:37:27;;;;;;;1.20;1.20;;;20.80;99.90;;;;;;4939729;29;20444;-68
2022/05/25 11:40:03;;;;;;;1.20;1.20;;;20.90;99.90;;;;;;4940168;29;21311;-68
2022/05/25 11:42:50;;;;;;;1.37;0.90;;;20.80;99.90;;;;;;4940270;29;21103;-68
2022/05/25 11:45:37;;;;;;;1.93;1.20;;;20.90;99.90;;;;;;4939377;29;20729;-68
2022/05/25 11:48:40;;;;;;;1.20;1.20;;;20.80;99.90;;;;;;4939293;29;20782;-68
2022/05/25 11:51:20;;;;;;;1.00;1.00;;;20.80;99.90;;;;;;4940294;29;20449;-68
2022/05/25 11:54:13;;;;;;;2.40;1.43;;;20.80;99.90;;;;;;4940161;29;20433;-69
2022/05/25 11:56:50;;;;;;;0.90;0.90;;;20.90;99.90;;;;;;4939555;28;20799;-68
2022/05/25 11:59:44;;;;;;;0.80;0.80;;;20.90;99.90;;;;;;4939906;29;20475;-68
2022/05/25 12:02:36;;;;;;;0.83;0.80;;;20.80;99.90;;;;;;4940320;29;20861;-68
2022/05/25 12:05:16;;;;;;;1.33;0.80;;;20.70;99.90;;;;;;4940410;29;20444;-68
2022/05/25 12:08:11;;;;;;;1.80;1.70;;;20.60;99.90;;;;;;4940471;29;20440;-69
2022/05/25 12:10:41;;;;;;;1.57;1.47;;;20.60;99.90;;;;;;4933523;29;20528;-68
2022/05/25 12:13:15;;;;;;;4.87;1.40;;;20.50;99.90;;;;;;4940425;29;20441;-68
2022/05/25 12:15:56;;;;;;;2.33;0.87;;;20.40;99.90;;;;;;4939851;28;20585;-67
2022/05/25 12:18:30;;;;;;;1.10;1.10;;;20.40;99.90;;;;;;4940310;29;20440;-67
2022/05/25 12:21:01;;;;;;;1.40;0.90;;;20.50;99.90;;;;;;4938896;29;20852;-67
2022/05/25 12:23:33;;;;;;;1.00;1.00;;;20.40;99.90;;;;;;4939409;29;20456;-69
2022/05/25 12:26:06;;;;;;;0.97;0.97;;;20.40;99.90;;;;;;4942378;28;20440;-67
2022/05/25 12:28:38;;;;;;;1.30;1.20;;;20.40;99.90;;;;;;4944110;29;20437;-67
2022/05/25 12:31:11;;;;;;;1.53;1.13;;;20.30;99.90;;;;;;4943782;29;20462;-67
2022/05/25 12:33:41;;;;;;;1.77;1.23;;;20.20;99.90;;;;;;4943770;29;20492;-67
2022/05/25 12:36:10;;;;;;;1.77;1.47;;;20.20;99.90;;;;;;4943514;28;20540;-67
2022/05/25 12:38:40;;;;;;;1.10;1.00;;;20.20;99.90;;;;;;4943756;28;20740;-67
2022/05/25 12:41:31;;;;;;;4.33;2.10;;;20.20;99.90;;;;;;4942878;29;20928;-67
2022/05/25 12:44:03;;;;;;;2.00;1.30;;;20.30;99.90;;;;;;4943545;29;20436;-67
2022/05/25 12:49:49;;;;;;;2.20;1.20;;;20.30;99.90;;;;;;4943289;29;20516;-67
2022/05/25 12:52:43;;;;;;;1.73;1.10;;;20.20;99.90;;;;;;4943028;29;21028;-67
2022/05/25 12:55:33;;;;;;;1.40;1.30;;;20.10;99.90;;;;;;4942580;28;21181;-67
2022/05/25 12:58:02;;;;;;;1.53;1.43;;;20.10;99.90;;;;;;4942787;29;20476;-67
2022/05/25 13:01:00;;;;;;;1.33;1.30;;;20.10;99.90;;;;;;4942127;28;20490;-67
2022/05/25 13:03:40;;;;;;;1.30;1.10;;;20.10;99.90;;;;;;4942594;29;20921;-67
2022/05/25 13:06:09;;;;;;;0.97;0.90;;;20.10;99.90;;;;;;4942332;29;20519;-67
2022/05/25 13:09:11;;;;;;;0.90;0.90;;;20.20;99.90;;;;;;4942409;29;20708;-67
2022/05/25 13:11:44;;;;;;;1.37;1.27;;;20.30;99.90;;;;;;4942352;29;20452;-67
2022/05/25 13:14:49;;;;;;;1.53;1.37;;;20.30;99.90;;;;;;4942275;29;20553;-67
2022/05/25 13:17:46;;;;;;;0.80;0.80;;;20.20;99.90;;;;;;4942483;29;20441;-67
2022/05/25 13:20:58;;;;;;;1.10;1.10;;;20.10;99.90;;;;;;4941801;29;20445;-67
2022/05/25 13:24:09;;;;;;;1.00;1.00;;;20.00;99.90;;;;;;4942118;28;20449;-67
2022/05/25 13:27:03;;;;;;;1.03;1.03;;;20.10;99.90;;;;;;4941964;29;20733;-67
2022/05/25 13:29:38;;;;;;;2.10;0.73;;;20.30;99.90;;;;;;4942752;29;20441;-67
2022/05/25 13:32:14;;;;;;;3.13;1.47;;;20.40;99.90;;;;;;4942806;29;20499;-67
2022/05/25 13:34:43;;;;;;;1.90;0.70;;;20.50;99.90;;;;;;4946011;29;20497;-68
2022/05/25 13:37:13;;;;;;;1.77;0.90;;;20.50;99.90;;;;;;4942743;28;20437;-68
2022/05/25 13:39:43;;;;;;;2.70;1.90;;;20.50;99.90;;;;;;4942124;29;20429;-67
2022/05/25 13:42:15;;;;;;;0.93;0.80;;;20.80;99.90;;;;;;4941827;29;20733;-67
2022/05/25 13:44:47;;;;;;;0.60;0.60;;;20.90;99.90;;;;;;4941568;29;20554;-67
2022/05/25 13:47:20;;;;;;;1.07;0.50;;;21.10;99.90;;;;;;4941797;29;20610;-69
2022/05/25 13:49:50;;;;;;;0.90;0.77;;;21.20;99.90;;;;;;4942588;29;20646;-67